الصفحة الرئيسية
METAR-TAF:

METAR-TAF

مطار :

Majuro, جزر مارشال

دائرة عرض: 07-04N, خط طول: 171-17E, ارتفاع: 2 متر

METAR: مفقودة

زمن: 09:15 (21:15 UTC)

توقعات

تاريخ ووقت الإصدار 3ساعات و 42 دقيقة قبل الساعة 17:33UTC
التوقعات صالحة من17 الساعة 18 UTC إلى 18 الساعة 18 UTC
ريح 11 عقدة من الشرق/الشمال الشرقي
الرؤية: 10 كم
غيوم متفرقة على ارتفاع 1800 قدم
غيوم مفككة على ارتفاع 5000 قدم
ملبد بالغيوم على ارتفاع 13000 قدم
زخات في الجوار

TAF: PKMJ 171733Z 1718/1818 07011KT P6SM VCSH SCT018 BKN050 OVC130

أرصاد الطقس والتوقعات من أكثر من 4000 مطار (تقارير الطقس للمطار METAR والتنبؤ بالطقس بالمطارTAF).

المحطات المتاحة هي النقط الصفراء والحمراء على الخريطة.

حرك المؤشر فوق النقطة لمعرفة اسم المحطة.

ثم انقر لمعرفة أرصاد وتوقعات الطقس.

لتغيير الخارطة: اضغط على الأزرار الخضراء مع رمز الصليب الأسود للتكبير. على الزر الأخضر مع شرطة للتصغير، أو على الأسهم الخضراء للخرائط المجاورة.


METAR-TAF: